Airfield :
LOGIN :

Register | Disclaimer

   EN    FR    IT 

 










Legend :    VFR   Marginal VFR   IFR   Intensive IFR   Very Intensive IFR
Visi :
Ceiling :
>= 8 km
>= 3000ft
5 to 8 km
1000 to 3000 ft
1500m to 5 km
500 to 1000 ft
800 to 1500m
200 to 500 ft
< 800m
< 200 ft
Symbols :   Thunderstorms  Fog  Heavy snow  Heavy precipitations  Wind > 20 kt
SIGMETs :     Misc.  Thunderstorms  Icing  Turbulence  Mountain Waves  Volcanic Ashes






- Airport Elevation : 412 ft
- IATA code : ORE


LFOJ - Orleans

CURRENT METAR :
  • 090730Z AUTO 22010KT 9999 // NSC M00/M01 Q1008

EXPIRED METARs :
  • 090700Z AUTO 22009KT 9999 // NSC 00/M01 Q1008
  • 090630Z AUTO 21010KT 9999 // NSC 00/M01 Q1008
  • 090600Z AUTO 22010KT 9999 // NSC 00/M01 Q1008
  • 090530Z AUTO 22009KT 9999 // NSC 00/M01 Q1008
  • 090500Z AUTO 22009KT 9999 // NSC 01/M00 Q1008
  • 090430Z AUTO 23009KT 9999 // NSC 00/M01 Q1008

TAF AMD TAF LFOJ
Valid from the 09 at 06:00 until the 10 at 03:00 UTC


090613Z 0906/1003 22010KT CAVOK TX08/0914Z TN00/0907Z
PROB30 0906/0908 4000 BR BKN004
BECMG 0909/0911 BKN008
BECMG 0911/0913 BKN010
TEMPO 0920/1003 18015G25KT 4000 -DZRA BKN004
PROB40 0921/1001 2500 RA
BECMG 1002/1003 27018KT SCT015 BKN025



MET'MAP, your aeronautical weather chart ! - Copyright ORBIFLY December 2007 - Disclaimer

ORBIFLY MET'MAP TEAM :

Programming & Development : Alexandra Zaïnal
Concept & original design : Baudouin d'Aumeries
Assistance for programming : Marc-Olivier Méhu
Technical & hardware support : Manuel Goepfert

Contact : metmap@orbifly.com




SOURCES & CREDITS :

   NOAA